sensor_id;sensor_type;location;lat;lon;timestamp;P1;durP1;ratioP1;P2;durP2;ratioP2
7306;SDS011;3694;48.732;9.248;2022-09-09T00:01:00;6.17;;;1.97;;
7306;SDS011;3694;48.732;9.248;2022-09-09T00:03:48;7.93;;;2.43;;
7306;SDS011;3694;48.732;9.248;2022-09-09T00:06:21;6.03;;;1.97;;
7306;SDS011;3694;48.732;9.248;2022-09-09T00:09:00;4.13;;;2.03;;
7306;SDS011;3694;48.732;9.248;2022-09-09T00:14:11;5.53;;;2.10;;
7306;SDS011;3694;48.732;9.248;2022-09-09T00:16:44;3.30;;;2.17;;
7306;SDS011;3694;48.732;9.248;2022-09-09T00:19:23;3.37;;;2.00;;
7306;SDS011;3694;48.732;9.248;2022-09-09T00:24:43;6.03;;;2.27;;
7306;SDS011;3694;48.732;9.248;2022-09-09T00:29:51;5.07;;;2.37;;
7306;SDS011;3694;48.732;9.248;2022-09-09T00:32:19;3.97;;;1.77;;
7306;SDS011;3694;48.732;9.248;2022-09-09T00:34:56;3.53;;;1.93;;
7306;SDS011;3694;48.732;9.248;2022-09-09T00:37:27;4.13;;;2.00;;
7306;SDS011;3694;48.732;9.248;2022-09-09T00:39:57;2.93;;;1.80;;
7306;SDS011;3694;48.732;9.248;2022-09-09T00:42:41;6.27;;;1.90;;
7306;SDS011;3694;48.732;9.248;2022-09-09T00:47:52;5.57;;;2.07;;
7306;SDS011;3694;48.732;9.248;2022-09-09T00:56:16;3.63;;;1.90;;
7306;SDS011;3694;48.732;9.248;2022-09-09T00:58:59;4.83;;;1.87;;
7306;SDS011;3694;48.732;9.248;2022-09-09T01:01:46;4.83;;;1.50;;
7306;SDS011;3694;48.732;9.248;2022-09-09T01:04:14;4.83;;;1.63;;
7306;SDS011;3694;48.732;9.248;2022-09-09T01:06:43;5.10;;;1.90;;
7306;SDS011;3694;48.732;9.248;2022-09-09T01:14:50;3.50;;;1.87;;
7306;SDS011;3694;48.732;9.248;2022-09-09T01:17:26;2.33;;;1.60;;
7306;SDS011;3694;48.732;9.248;2022-09-09T01:27:52;3.97;;;1.97;;
7306;SDS011;3694;48.732;9.248;2022-09-09T01:30:25;2.63;;;1.43;;
7306;SDS011;3694;48.732;9.248;2022-09-09T01:32:56;3.23;;;1.47;;
7306;SDS011;3694;48.732;9.248;2022-09-09T01:37:56;2.77;;;1.43;;
7306;SDS011;3694;48.732;9.248;2022-09-09T01:40:22;3.83;;;1.57;;
7306;SDS011;3694;48.732;9.248;2022-09-09T01:42:48;2.73;;;1.80;;
7306;SDS011;3694;48.732;9.248;2022-09-09T01:45:13;3.87;;;1.50;;
7306;SDS011;3694;48.732;9.248;2022-09-09T01:47:39;2.83;;;1.50;;
7306;SDS011;3694;48.732;9.248;2022-09-09T01:50:06;4.77;;;1.20;;
7306;SDS011;3694;48.732;9.248;2022-09-09T01:52:36;3.50;;;1.33;;
7306;SDS011;3694;48.732;9.248;2022-09-09T01:55:02;2.57;;;1.20;;
7306;SDS011;3694;48.732;9.248;2022-09-09T01:57:31;3.03;;;1.37;;
7306;SDS011;3694;48.732;9.248;2022-09-09T02:00:05;3.90;;;1.47;;
7306;SDS011;3694;48.732;9.248;2022-09-09T02:02:55;3.27;;;1.60;;
7306;SDS011;3694;48.732;9.248;2022-09-09T02:05:34;2.80;;;1.20;;
7306;SDS011;3694;48.732;9.248;2022-09-09T02:08:06;2.47;;;1.23;;
7306;SDS011;3694;48.732;9.248;2022-09-09T02:10:42;3.53;;;1.57;;
7306;SDS011;3694;48.732;9.248;2022-09-09T02:13:14;6.10;;;1.60;;
7306;SDS011;3694;48.732;9.248;2022-09-09T02:15:43;3.43;;;1.40;;
7306;SDS011;3694;48.732;9.248;2022-09-09T02:18:27;3.80;;;1.20;;
7306;SDS011;3694;48.732;9.248;2022-09-09T02:20:57;3.03;;;1.50;;
7306;SDS011;3694;48.732;9.248;2022-09-09T02:23:24;3.43;;;1.40;;
7306;SDS011;3694;48.732;9.248;2022-09-09T02:25:50;3.40;;;1.60;;
7306;SDS011;3694;48.732;9.248;2022-09-09T02:28:17;6.70;;;1.53;;
7306;SDS011;3694;48.732;9.248;2022-09-09T02:30:46;3.53;;;1.60;;
7306;SDS011;3694;48.732;9.248;2022-09-09T02:33:18;4.53;;;1.40;;
7306;SDS011;3694;48.732;9.248;2022-09-09T02:35:44;4.20;;;1.50;;
7306;SDS011;3694;48.732;9.248;2022-09-09T02:38:12;5.57;;;1.53;;
7306;SDS011;3694;48.732;9.248;2022-09-09T02:40:40;4.73;;;1.57;;
7306;SDS011;3694;48.732;9.248;2022-09-09T02:43:05;1.93;;;1.40;;
7306;SDS011;3694;48.732;9.248;2022-09-09T02:45:41;4.17;;;1.50;;
7306;SDS011;3694;48.732;9.248;2022-09-09T02:48:30;2.90;;;1.57;;
7306;SDS011;3694;48.732;9.248;2022-09-09T02:51:08;4.13;;;1.47;;
7306;SDS011;3694;48.732;9.248;2022-09-09T02:56:36;3.07;;;1.50;;
7306;SDS011;3694;48.732;9.248;2022-09-09T02:59:06;3.53;;;1.43;;
7306;SDS011;3694;48.732;9.248;2022-09-09T03:01:32;3.70;;;1.33;;
7306;SDS011;3694;48.732;9.248;2022-09-09T03:03:58;4.20;;;1.53;;
7306;SDS011;3694;48.732;9.248;2022-09-09T03:06:23;4.53;;;1.43;;
7306;SDS011;3694;48.732;9.248;2022-09-09T03:08:49;5.03;;;1.60;;
7306;SDS011;3694;48.732;9.248;2022-09-09T03:11:15;4.10;;;1.43;;
7306;SDS011;3694;48.732;9.248;2022-09-09T03:13:41;4.23;;;1.60;;
7306;SDS011;3694;48.732;9.248;2022-09-09T03:16:06;2.03;;;1.40;;
7306;SDS011;3694;48.732;9.248;2022-09-09T03:18:32;6.40;;;1.67;;
7306;SDS011;3694;48.732;9.248;2022-09-09T03:20:59;2.60;;;1.23;;
7306;SDS011;3694;48.732;9.248;2022-09-09T03:23:25;2.77;;;1.50;;
7306;SDS011;3694;48.732;9.248;2022-09-09T03:25:50;3.93;;;1.87;;
7306;SDS011;3694;48.732;9.248;2022-09-09T03:28:17;2.50;;;1.47;;
7306;SDS011;3694;48.732;9.248;2022-09-09T03:30:43;3.47;;;1.53;;
7306;SDS011;3694;48.732;9.248;2022-09-09T03:33:08;5.33;;;1.50;;
7306;SDS011;3694;48.732;9.248;2022-09-09T03:35:34;1.70;;;1.17;;
7306;SDS011;3694;48.732;9.248;2022-09-09T03:38:00;1.90;;;1.70;;
7306;SDS011;3694;48.732;9.248;2022-09-09T03:40:25;3.70;;;2.13;;
7306;SDS011;3694;48.732;9.248;2022-09-09T03:42:51;3.03;;;1.63;;
7306;SDS011;3694;48.732;9.248;2022-09-09T03:45:16;3.80;;;1.90;;
7306;SDS011;3694;48.732;9.248;2022-09-09T03:47:42;5.03;;;2.07;;
7306;SDS011;3694;48.732;9.248;2022-09-09T03:50:08;2.80;;;1.90;;
7306;SDS011;3694;48.732;9.248;2022-09-09T03:52:36;3.70;;;2.03;;
7306;SDS011;3694;48.732;9.248;2022-09-09T03:55:02;5.53;;;2.10;;
7306;SDS011;3694;48.732;9.248;2022-09-09T03:57:28;3.50;;;1.93;;
7306;SDS011;3694;48.732;9.248;2022-09-09T03:59:54;4.67;;;1.77;;
7306;SDS011;3694;48.732;9.248;2022-09-09T04:02:20;2.73;;;1.83;;
7306;SDS011;3694;48.732;9.248;2022-09-09T04:04:46;4.10;;;2.03;;
7306;SDS011;3694;48.732;9.248;2022-09-09T04:07:12;2.50;;;1.67;;
7306;SDS011;3694;48.732;9.248;2022-09-09T04:09:38;2.43;;;1.70;;
7306;SDS011;3694;48.732;9.248;2022-09-09T04:12:03;1.90;;;1.70;;
7306;SDS011;3694;48.732;9.248;2022-09-09T04:14:29;4.10;;;2.00;;
7306;SDS011;3694;48.732;9.248;2022-09-09T04:16:55;4.57;;;1.97;;
7306;SDS011;3694;48.732;9.248;2022-09-09T04:19:23;4.17;;;2.10;;
7306;SDS011;3694;48.732;9.248;2022-09-09T04:21:48;4.23;;;1.90;;
7306;SDS011;3694;48.732;9.248;2022-09-09T04:24:16;4.97;;;2.27;;
7306;SDS011;3694;48.732;9.248;2022-09-09T04:26:42;4.43;;;2.03;;
7306;SDS011;3694;48.732;9.248;2022-09-09T04:29:08;2.97;;;1.83;;
7306;SDS011;3694;48.732;9.248;2022-09-09T04:31:33;4.83;;;2.03;;
7306;SDS011;3694;48.732;9.248;2022-09-09T04:34:00;3.73;;;1.90;;
7306;SDS011;3694;48.732;9.248;2022-09-09T04:36:30;6.17;;;1.97;;
7306;SDS011;3694;48.732;9.248;2022-09-09T04:38:57;4.63;;;1.77;;
7306;SDS011;3694;48.732;9.248;2022-09-09T04:41:22;5.03;;;1.80;;
7306;SDS011;3694;48.732;9.248;2022-09-09T04:43:48;3.40;;;1.43;;
7306;SDS011;3694;48.732;9.248;2022-09-09T04:46:14;3.33;;;1.83;;
7306;SDS011;3694;48.732;9.248;2022-09-09T04:48:42;4.37;;;1.63;;
7306;SDS011;3694;48.732;9.248;2022-09-09T04:51:08;3.03;;;1.70;;
7306;SDS011;3694;48.732;9.248;2022-09-09T04:53:36;3.73;;;1.30;;
7306;SDS011;3694;48.732;9.248;2022-09-09T04:56:06;3.87;;;1.43;;
7306;SDS011;3694;48.732;9.248;2022-09-09T04:58:34;6.20;;;1.83;;
7306;SDS011;3694;48.732;9.248;2022-09-09T05:03:30;3.43;;;1.63;;
7306;SDS011;3694;48.732;9.248;2022-09-09T05:06:02;3.47;;;2.07;;
7306;SDS011;3694;48.732;9.248;2022-09-09T05:08:33;8.43;;;2.50;;
7306;SDS011;3694;48.732;9.248;2022-09-09T05:10:59;3.20;;;1.90;;
7306;SDS011;3694;48.732;9.248;2022-09-09T05:13:25;4.60;;;1.90;;
7306;SDS011;3694;48.732;9.248;2022-09-09T05:15:54;6.63;;;1.90;;
7306;SDS011;3694;48.732;9.248;2022-09-09T05:18:20;6.67;;;1.90;;
7306;SDS011;3694;48.732;9.248;2022-09-09T05:20:47;1.93;;;1.70;;
7306;SDS011;3694;48.732;9.248;2022-09-09T05:23:13;4.63;;;1.80;;
7306;SDS011;3694;48.732;9.248;2022-09-09T05:25:39;5.80;;;1.70;;
7306;SDS011;3694;48.732;9.248;2022-09-09T05:28:06;8.43;;;2.13;;
7306;SDS011;3694;48.732;9.248;2022-09-09T05:30:32;3.10;;;1.80;;
7306;SDS011;3694;48.732;9.248;2022-09-09T05:32:58;5.33;;;1.60;;
7306;SDS011;3694;48.732;9.248;2022-09-09T05:35:24;3.63;;;1.60;;
7306;SDS011;3694;48.732;9.248;2022-09-09T05:37:50;3.10;;;1.70;;
7306;SDS011;3694;48.732;9.248;2022-09-09T05:40:15;6.50;;;1.70;;
7306;SDS011;3694;48.732;9.248;2022-09-09T05:42:41;4.67;;;1.70;;
7306;SDS011;3694;48.732;9.248;2022-09-09T05:45:07;5.60;;;1.60;;
7306;SDS011;3694;48.732;9.248;2022-09-09T05:47:33;3.40;;;1.80;;
7306;SDS011;3694;48.732;9.248;2022-09-09T05:50:00;2.83;;;1.57;;
7306;SDS011;3694;48.732;9.248;2022-09-09T05:52:26;6.77;;;1.80;;
7306;SDS011;3694;48.732;9.248;2022-09-09T05:54:52;5.70;;;1.70;;
7306;SDS011;3694;48.732;9.248;2022-09-09T05:57:19;4.53;;;1.80;;
7306;SDS011;3694;48.732;9.248;2022-09-09T05:59:45;4.60;;;1.63;;
7306;SDS011;3694;48.732;9.248;2022-09-09T06:02:10;5.77;;;1.60;;
7306;SDS011;3694;48.732;9.248;2022-09-09T06:04:37;4.40;;;1.43;;
7306;SDS011;3694;48.732;9.248;2022-09-09T06:07:04;1.73;;;1.07;;
7306;SDS011;3694;48.732;9.248;2022-09-09T06:09:30;6.00;;;1.57;;
7306;SDS011;3694;48.732;9.248;2022-09-09T06:11:56;3.33;;;1.30;;
7306;SDS011;3694;48.732;9.248;2022-09-09T06:14:23;2.50;;;1.40;;
7306;SDS011;3694;48.732;9.248;2022-09-09T06:16:50;3.13;;;1.53;;
7306;SDS011;3694;48.732;9.248;2022-09-09T06:19:16;6.13;;;1.37;;
7306;SDS011;3694;48.732;9.248;2022-09-09T06:21:41;3.47;;;1.43;;
7306;SDS011;3694;48.732;9.248;2022-09-09T06:24:07;4.10;;;1.20;;
7306;SDS011;3694;48.732;9.248;2022-09-09T06:26:34;5.23;;;1.17;;
7306;SDS011;3694;48.732;9.248;2022-09-09T06:29:02;2.23;;;1.10;;
7306;SDS011;3694;48.732;9.248;2022-09-09T06:31:29;2.73;;;1.40;;
7306;SDS011;3694;48.732;9.248;2022-09-09T06:33:56;4.40;;;1.40;;
7306;SDS011;3694;48.732;9.248;2022-09-09T06:36:30;7.30;;;1.83;;
7306;SDS011;3694;48.732;9.248;2022-09-09T06:38:58;2.97;;;1.43;;
7306;SDS011;3694;48.732;9.248;2022-09-09T06:41:26;3.80;;;1.27;;
7306;SDS011;3694;48.732;9.248;2022-09-09T06:43:53;6.80;;;1.30;;
7306;SDS011;3694;48.732;9.248;2022-09-09T06:46:21;3.97;;;1.20;;
7306;SDS011;3694;48.732;9.248;2022-09-09T06:48:48;3.97;;;1.20;;
7306;SDS011;3694;48.732;9.248;2022-09-09T06:51:20;3.43;;;1.43;;
7306;SDS011;3694;48.732;9.248;2022-09-09T06:53:47;5.80;;;1.13;;
7306;SDS011;3694;48.732;9.248;2022-09-09T06:56:20;2.70;;;1.00;;
7306;SDS011;3694;48.732;9.248;2022-09-09T06:58:52;5.30;;;1.50;;
7306;SDS011;3694;48.732;9.248;2022-09-09T07:01:27;4.73;;;1.63;;
7306;SDS011;3694;48.732;9.248;2022-09-09T07:03:55;4.60;;;1.47;;
7306;SDS011;3694;48.732;9.248;2022-09-09T07:06:25;4.07;;;1.40;;
7306;SDS011;3694;48.732;9.248;2022-09-09T07:08:52;3.23;;;1.10;;
7306;SDS011;3694;48.732;9.248;2022-09-09T07:11:20;4.13;;;1.70;;
7306;SDS011;3694;48.732;9.248;2022-09-09T07:13:47;2.20;;;1.20;;
7306;SDS011;3694;48.732;9.248;2022-09-09T07:16:17;3.50;;;1.30;;
7306;SDS011;3694;48.732;9.248;2022-09-09T07:18:45;4.33;;;1.20;;
7306;SDS011;3694;48.732;9.248;2022-09-09T07:21:11;2.50;;;1.50;;
7306;SDS011;3694;48.732;9.248;2022-09-09T07:23:39;2.53;;;1.30;;
7306;SDS011;3694;48.732;9.248;2022-09-09T07:26:12;2.37;;;1.07;;
7306;SDS011;3694;48.732;9.248;2022-09-09T07:28:44;3.60;;;1.27;;
7306;SDS011;3694;48.732;9.248;2022-09-09T07:31:14;2.63;;;1.10;;
7306;SDS011;3694;48.732;9.248;2022-09-09T07:33:51;2.73;;;1.50;;
7306;SDS011;3694;48.732;9.248;2022-09-09T07:36:18;1.90;;;1.23;;
7306;SDS011;3694;48.732;9.248;2022-09-09T07:38:53;1.77;;;1.20;;
7306;SDS011;3694;48.732;9.248;2022-09-09T07:41:22;2.73;;;1.13;;
7306;SDS011;3694;48.732;9.248;2022-09-09T07:43:50;2.47;;;1.20;;
7306;SDS011;3694;48.732;9.248;2022-09-09T07:46:18;3.33;;;1.30;;
7306;SDS011;3694;48.732;9.248;2022-09-09T07:48:45;2.40;;;1.00;;
7306;SDS011;3694;48.732;9.248;2022-09-09T07:51:16;3.13;;;1.20;;
7306;SDS011;3694;48.732;9.248;2022-09-09T07:53:44;1.97;;;0.73;;
7306;SDS011;3694;48.732;9.248;2022-09-09T07:56:13;2.67;;;1.13;;
7306;SDS011;3694;48.732;9.248;2022-09-09T07:58:41;5.73;;;1.03;;
7306;SDS011;3694;48.732;9.248;2022-09-09T08:01:10;4.33;;;1.20;;
7306;SDS011;3694;48.732;9.248;2022-09-09T08:03:59;3.57;;;1.23;;
7306;SDS011;3694;48.732;9.248;2022-09-09T08:06:28;3.97;;;1.20;;
7306;SDS011;3694;48.732;9.248;2022-09-09T08:08:56;2.77;;;1.20;;
7306;SDS011;3694;48.732;9.248;2022-09-09T08:11:22;3.17;;;0.70;;
7306;SDS011;3694;48.732;9.248;2022-09-09T08:13:49;2.47;;;1.10;;
7306;SDS011;3694;48.732;9.248;2022-09-09T08:16:23;3.40;;;1.00;;
7306;SDS011;3694;48.732;9.248;2022-09-09T08:18:50;3.70;;;1.40;;
7306;SDS011;3694;48.732;9.248;2022-09-09T08:21:18;4.97;;;1.07;;
7306;SDS011;3694;48.732;9.248;2022-09-09T08:23:46;3.37;;;1.00;;
7306;SDS011;3694;48.732;9.248;2022-09-09T08:28:42;4.93;;;0.93;;
7306;SDS011;3694;48.732;9.248;2022-09-09T08:31:12;3.83;;;1.00;;
7306;SDS011;3694;48.732;9.248;2022-09-09T08:33:40;3.47;;;1.10;;
7306;SDS011;3694;48.732;9.248;2022-09-09T08:36:08;5.93;;;1.20;;
7306;SDS011;3694;48.732;9.248;2022-09-09T08:38:35;2.70;;;1.00;;
7306;SDS011;3694;48.732;9.248;2022-09-09T08:43:48;1.98;;;0.80;;
7306;SDS011;3694;48.732;9.248;2022-09-09T08:49:02;2.35;;;1.00;;
7306;SDS011;3694;48.732;9.248;2022-09-09T08:51:41;4.17;;;1.07;;
7306;SDS011;3694;48.732;9.248;2022-09-09T08:54:07;4.45;;;1.13;;
7306;SDS011;3694;48.732;9.248;2022-09-09T08:56:35;2.95;;;1.20;;
7306;SDS011;3694;48.732;9.248;2022-09-09T08:59:01;2.28;;;1.25;;
7306;SDS011;3694;48.732;9.248;2022-09-09T09:07:18;5.17;;;0.93;;
7306;SDS011;3694;48.732;9.248;2022-09-09T09:12:53;3.47;;;1.20;;
7306;SDS011;3694;48.732;9.248;2022-09-09T09:15:25;3.07;;;1.10;;
7306;SDS011;3694;48.732;9.248;2022-09-09T09:17:55;2.50;;;0.73;;
7306;SDS011;3694;48.732;9.248;2022-09-09T09:20:28;2.60;;;0.97;;
7306;SDS011;3694;48.732;9.248;2022-09-09T09:23:04;4.03;;;1.00;;
7306;SDS011;3694;48.732;9.248;2022-09-09T09:25:34;2.70;;;0.93;;
7306;SDS011;3694;48.732;9.248;2022-09-09T09:28:17;3.70;;;1.10;;
7306;SDS011;3694;48.732;9.248;2022-09-09T09:33:47;5.73;;;1.53;;
7306;SDS011;3694;48.732;9.248;2022-09-09T09:36:15;6.43;;;1.63;;
7306;SDS011;3694;48.732;9.248;2022-09-09T09:38:51;3.40;;;1.30;;
7306;SDS011;3694;48.732;9.248;2022-09-09T09:41:29;8.00;;;1.57;;
7306;SDS011;3694;48.732;9.248;2022-09-09T09:44:04;3.70;;;1.17;;
7306;SDS011;3694;48.732;9.248;2022-09-09T09:46:31;3.43;;;1.00;;
7306;SDS011;3694;48.732;9.248;2022-09-09T09:49:04;2.80;;;0.80;;
7306;SDS011;3694;48.732;9.248;2022-09-09T09:51:33;3.93;;;1.53;;
7306;SDS011;3694;48.732;9.248;2022-09-09T09:54:08;4.73;;;1.23;;
7306;SDS011;3694;48.732;9.248;2022-09-09T09:56:38;2.03;;;0.70;;
7306;SDS011;3694;48.732;9.248;2022-09-09T09:59:05;2.40;;;0.80;;
7306;SDS011;3694;48.732;9.248;2022-09-09T10:01:32;2.80;;;0.90;;
7306;SDS011;3694;48.732;9.248;2022-09-09T10:03:59;5.47;;;2.10;;
7306;SDS011;3694;48.732;9.248;2022-09-09T10:06:34;3.83;;;1.40;;
7306;SDS011;3694;48.732;9.248;2022-09-09T10:09:03;2.73;;;1.00;;
7306;SDS011;3694;48.732;9.248;2022-09-09T10:14:41;3.20;;;1.23;;
7306;SDS011;3694;48.732;9.248;2022-09-09T10:17:24;5.23;;;2.30;;
7306;SDS011;3694;48.732;9.248;2022-09-09T10:23:03;4.77;;;1.80;;
7306;SDS011;3694;48.732;9.248;2022-09-09T10:25:43;5.80;;;2.23;;
7306;SDS011;3694;48.732;9.248;2022-09-09T10:28:35;6.07;;;2.17;;
7306;SDS011;3694;48.732;9.248;2022-09-09T10:31:19;3.10;;;1.20;;
7306;SDS011;3694;48.732;9.248;2022-09-09T10:36:56;3.40;;;1.67;;
7306;SDS011;3694;48.732;9.248;2022-09-09T10:39:43;6.67;;;2.07;;
7306;SDS011;3694;48.732;9.248;2022-09-09T10:42:14;3.07;;;1.20;;
7306;SDS011;3694;48.732;9.248;2022-09-09T10:47:35;3.07;;;1.20;;
7306;SDS011;3694;48.732;9.248;2022-09-09T10:55:50;4.33;;;1.03;;
7306;SDS011;3694;48.732;9.248;2022-09-09T10:58:32;5.57;;;1.53;;
7306;SDS011;3694;48.732;9.248;2022-09-09T11:01:09;3.90;;;1.13;;
7306;SDS011;3694;48.732;9.248;2022-09-09T11:03:42;2.97;;;0.97;;
7306;SDS011;3694;48.732;9.248;2022-09-09T11:06:14;5.50;;;1.27;;
7306;SDS011;3694;48.732;9.248;2022-09-09T11:08:47;5.47;;;2.03;;
7306;SDS011;3694;48.732;9.248;2022-09-09T11:11:21;1.83;;;1.02;;
7306;SDS011;3694;48.732;9.248;2022-09-09T11:16:35;2.60;;;0.97;;
7306;SDS011;3694;48.732;9.248;2022-09-09T11:21:59;3.47;;;1.60;;
7306;SDS011;3694;48.732;9.248;2022-09-09T11:24:44;2.40;;;0.80;;
7306;SDS011;3694;48.732;9.248;2022-09-09T11:27:16;3.47;;;1.40;;
7306;SDS011;3694;48.732;9.248;2022-09-09T11:29:53;3.77;;;1.40;;
7306;SDS011;3694;48.732;9.248;2022-09-09T11:32:47;2.53;;;1.07;;
7306;SDS011;3694;48.732;9.248;2022-09-09T11:35:50;2.67;;;0.70;;
7306;SDS011;3694;48.732;9.248;2022-09-09T11:38:46;1.83;;;0.90;;
7306;SDS011;3694;48.732;9.248;2022-09-09T11:41:16;4.40;;;1.03;;
7306;SDS011;3694;48.732;9.248;2022-09-09T11:43:46;5.23;;;1.07;;
7306;SDS011;3694;48.732;9.248;2022-09-09T11:46:17;2.60;;;0.70;;
7306;SDS011;3694;48.732;9.248;2022-09-09T11:48:59;1.47;;;0.70;;
7306;SDS011;3694;48.732;9.248;2022-09-09T11:51:27;4.13;;;0.80;;
7306;SDS011;3694;48.732;9.248;2022-09-09T11:53:56;3.00;;;0.80;;
7306;SDS011;3694;48.732;9.248;2022-09-09T11:56:28;1.50;;;0.47;;
7306;SDS011;3694;48.732;9.248;2022-09-09T12:04:28;0.93;;;0.50;;
7306;SDS011;3694;48.732;9.248;2022-09-09T12:12:31;0.23;;;0.20;;
7306;SDS011;3694;48.732;9.248;2022-09-09T12:17:27;0.23;;;0.20;;
7306;SDS011;3694;48.732;9.248;2022-09-09T12:20:12;1.53;;;0.40;;
7306;SDS011;3694;48.732;9.248;2022-09-09T12:28:18;0.60;;;0.33;;
7306;SDS011;3694;48.732;9.248;2022-09-09T12:30:56;0.80;;;0.40;;
7306;SDS011;3694;48.732;9.248;2022-09-09T12:33:34;0.77;;;0.30;;
7306;SDS011;3694;48.732;9.248;2022-09-09T12:36:05;1.37;;;0.57;;
7306;SDS011;3694;48.732;9.248;2022-09-09T12:38:38;1.57;;;0.53;;
7306;SDS011;3694;48.732;9.248;2022-09-09T12:41:05;0.97;;;0.40;;
7306;SDS011;3694;48.732;9.248;2022-09-09T12:43:31;1.90;;;0.53;;
7306;SDS011;3694;48.732;9.248;2022-09-09T12:46:00;2.23;;;0.70;;
7306;SDS011;3694;48.732;9.248;2022-09-09T12:48:30;1.17;;;0.60;;
7306;SDS011;3694;48.732;9.248;2022-09-09T12:51:02;1.50;;;0.50;;
7306;SDS011;3694;48.732;9.248;2022-09-09T12:53:32;1.47;;;0.60;;
7306;SDS011;3694;48.732;9.248;2022-09-09T12:58:30;3.80;;;1.37;;
7306;SDS011;3694;48.732;9.248;2022-09-09T13:00:59;2.53;;;0.83;;
7306;SDS011;3694;48.732;9.248;2022-09-09T13:03:28;4.67;;;1.57;;
7306;SDS011;3694;48.732;9.248;2022-09-09T13:05:54;3.17;;;1.03;;
7306;SDS011;3694;48.732;9.248;2022-09-09T13:08:25;1.70;;;0.90;;
7306;SDS011;3694;48.732;9.248;2022-09-09T13:15:56;2.10;;;0.80;;
7306;SDS011;3694;48.732;9.248;2022-09-09T13:18:24;2.40;;;0.90;;
7306;SDS011;3694;48.732;9.248;2022-09-09T13:20:55;1.67;;;0.77;;
7306;SDS011;3694;48.732;9.248;2022-09-09T13:23:23;3.63;;;0.87;;
7306;SDS011;3694;48.732;9.248;2022-09-09T13:25:56;2.80;;;0.90;;
7306;SDS011;3694;48.732;9.248;2022-09-09T13:28:27;10.03;;;1.20;;
7306;SDS011;3694;48.732;9.248;2022-09-09T13:33:34;5.53;;;1.63;;
7306;SDS011;3694;48.732;9.248;2022-09-09T13:36:09;3.70;;;0.87;;
7306;SDS011;3694;48.732;9.248;2022-09-09T13:38:58;2.93;;;1.10;;
7306;SDS011;3694;48.732;9.248;2022-09-09T13:44:00;5.40;;;1.90;;
7306;SDS011;3694;48.732;9.248;2022-09-09T13:49:01;2.20;;;0.60;;
7306;SDS011;3694;48.732;9.248;2022-09-09T13:54:10;2.77;;;0.97;;
7306;SDS011;3694;48.732;9.248;2022-09-09T13:56:37;2.63;;;0.77;;
7306;SDS011;3694;48.732;9.248;2022-09-09T13:59:05;1.50;;;0.67;;
7306;SDS011;3694;48.732;9.248;2022-09-09T14:01:35;3.00;;;1.00;;
7306;SDS011;3694;48.732;9.248;2022-09-09T14:04:02;3.37;;;0.90;;
7306;SDS011;3694;48.732;9.248;2022-09-09T14:06:29;3.30;;;1.37;;
7306;SDS011;3694;48.732;9.248;2022-09-09T14:08:55;3.93;;;1.40;;
7306;SDS011;3694;48.732;9.248;2022-09-09T14:11:21;1.40;;;0.50;;
7306;SDS011;3694;48.732;9.248;2022-09-09T14:13:47;1.70;;;0.83;;
7306;SDS011;3694;48.732;9.248;2022-09-09T14:16:15;1.33;;;0.60;;
7306;SDS011;3694;48.732;9.248;2022-09-09T14:18:42;3.70;;;1.20;;
7306;SDS011;3694;48.732;9.248;2022-09-09T14:21:09;2.33;;;0.77;;
7306;SDS011;3694;48.732;9.248;2022-09-09T14:23:35;3.33;;;1.07;;
7306;SDS011;3694;48.732;9.248;2022-09-09T14:26:00;3.97;;;1.40;;
7306;SDS011;3694;48.732;9.248;2022-09-09T14:28:26;4.00;;;1.00;;
7306;SDS011;3694;48.732;9.248;2022-09-09T14:30:53;2.03;;;0.80;;
7306;SDS011;3694;48.732;9.248;2022-09-09T14:33:18;1.97;;;0.80;;
7306;SDS011;3694;48.732;9.248;2022-09-09T14:35:44;0.60;;;0.20;;
7306;SDS011;3694;48.732;9.248;2022-09-09T14:38:09;1.30;;;0.60;;
7306;SDS011;3694;48.732;9.248;2022-09-09T14:40:35;1.87;;;0.40;;
7306;SDS011;3694;48.732;9.248;2022-09-09T14:43:02;0.80;;;0.40;;
7306;SDS011;3694;48.732;9.248;2022-09-09T14:45:28;1.20;;;0.40;;
7306;SDS011;3694;48.732;9.248;2022-09-09T14:47:54;2.67;;;0.50;;
7306;SDS011;3694;48.732;9.248;2022-09-09T14:50:20;2.60;;;0.30;;
7306;SDS011;3694;48.732;9.248;2022-09-09T14:52:46;0.70;;;0.27;;
7306;SDS011;3694;48.732;9.248;2022-09-09T14:55:12;1.47;;;0.57;;
7306;SDS011;3694;48.732;9.248;2022-09-09T14:57:38;0.60;;;0.20;;
7306;SDS011;3694;48.732;9.248;2022-09-09T15:00:05;2.47;;;0.53;;
7306;SDS011;3694;48.732;9.248;2022-09-09T15:02:32;0.50;;;0.40;;
7306;SDS011;3694;48.732;9.248;2022-09-09T15:04:58;1.27;;;0.63;;
7306;SDS011;3694;48.732;9.248;2022-09-09T15:07:24;0.80;;;0.50;;
7306;SDS011;3694;48.732;9.248;2022-09-09T15:09:50;1.53;;;0.43;;
7306;SDS011;3694;48.732;9.248;2022-09-09T15:12:17;2.40;;;0.70;;
7306;SDS011;3694;48.732;9.248;2022-09-09T15:14:43;1.33;;;0.63;;
7306;SDS011;3694;48.732;9.248;2022-09-09T15:17:09;2.03;;;0.57;;
7306;SDS011;3694;48.732;9.248;2022-09-09T15:19:35;1.40;;;0.50;;
7306;SDS011;3694;48.732;9.248;2022-09-09T15:22:02;1.17;;;0.50;;
7306;SDS011;3694;48.732;9.248;2022-09-09T15:24:30;2.00;;;0.30;;
7306;SDS011;3694;48.732;9.248;2022-09-09T15:26:56;3.60;;;0.70;;
7306;SDS011;3694;48.732;9.248;2022-09-09T15:29:22;1.40;;;0.50;;
7306;SDS011;3694;48.732;9.248;2022-09-09T15:31:48;3.40;;;0.90;;
7306;SDS011;3694;48.732;9.248;2022-09-09T15:34:13;1.20;;;0.57;;
7306;SDS011;3694;48.732;9.248;2022-09-09T15:36:43;1.13;;;0.67;;
7306;SDS011;3694;48.732;9.248;2022-09-09T15:39:11;3.13;;;0.73;;
7306;SDS011;3694;48.732;9.248;2022-09-09T15:41:40;4.07;;;0.80;;
7306;SDS011;3694;48.732;9.248;2022-09-09T15:44:07;2.00;;;0.97;;
7306;SDS011;3694;48.732;9.248;2022-09-09T15:46:37;1.90;;;0.67;;
7306;SDS011;3694;48.732;9.248;2022-09-09T15:49:17;1.67;;;0.90;;
7306;SDS011;3694;48.732;9.248;2022-09-09T15:51:45;2.33;;;0.50;;
7306;SDS011;3694;48.732;9.248;2022-09-09T15:54:16;2.03;;;0.60;;
7306;SDS011;3694;48.732;9.248;2022-09-09T15:56:43;2.90;;;0.70;;
7306;SDS011;3694;48.732;9.248;2022-09-09T15:59:10;1.50;;;0.50;;
7306;SDS011;3694;48.732;9.248;2022-09-09T16:01:36;2.67;;;0.70;;
7306;SDS011;3694;48.732;9.248;2022-09-09T16:04:04;2.03;;;0.67;;
7306;SDS011;3694;48.732;9.248;2022-09-09T16:06:30;2.00;;;0.70;;
7306;SDS011;3694;48.732;9.248;2022-09-09T16:08:57;1.10;;;0.50;;
7306;SDS011;3694;48.732;9.248;2022-09-09T16:11:25;2.17;;;0.60;;
7306;SDS011;3694;48.732;9.248;2022-09-09T16:13:56;2.10;;;0.90;;
7306;SDS011;3694;48.732;9.248;2022-09-09T16:16:23;2.60;;;0.67;;
7306;SDS011;3694;48.732;9.248;2022-09-09T16:18:54;1.93;;;0.53;;
7306;SDS011;3694;48.732;9.248;2022-09-09T16:21:26;3.43;;;1.10;;
7306;SDS011;3694;48.732;9.248;2022-09-09T16:23:57;3.17;;;0.80;;
7306;SDS011;3694;48.732;9.248;2022-09-09T16:26:24;1.63;;;0.77;;
7306;SDS011;3694;48.732;9.248;2022-09-09T16:28:50;0.90;;;0.40;;
7306;SDS011;3694;48.732;9.248;2022-09-09T16:31:19;3.10;;;0.70;;
7306;SDS011;3694;48.732;9.248;2022-09-09T16:33:47;2.03;;;0.73;;
7306;SDS011;3694;48.732;9.248;2022-09-09T16:36:15;3.43;;;0.60;;
7306;SDS011;3694;48.732;9.248;2022-09-09T16:38:42;1.30;;;0.80;;
7306;SDS011;3694;48.732;9.248;2022-09-09T16:41:09;3.47;;;0.63;;
7306;SDS011;3694;48.732;9.248;2022-09-09T16:43:35;2.17;;;0.90;;
7306;SDS011;3694;48.732;9.248;2022-09-09T16:46:17;2.03;;;0.50;;
7306;SDS011;3694;48.732;9.248;2022-09-09T16:48:44;1.70;;;0.60;;
7306;SDS011;3694;48.732;9.248;2022-09-09T16:53:43;1.80;;;0.80;;
7306;SDS011;3694;48.732;9.248;2022-09-09T16:56:10;1.80;;;0.70;;
7306;SDS011;3694;48.732;9.248;2022-09-09T16:58:48;2.27;;;0.60;;
7306;SDS011;3694;48.732;9.248;2022-09-09T17:01:15;3.13;;;0.63;;
7306;SDS011;3694;48.732;9.248;2022-09-09T17:03:41;1.37;;;0.57;;
7306;SDS011;3694;48.732;9.248;2022-09-09T17:06:13;1.30;;;0.50;;
7306;SDS011;3694;48.732;9.248;2022-09-09T17:08:40;1.73;;;0.40;;
7306;SDS011;3694;48.732;9.248;2022-09-09T17:11:13;1.03;;;0.40;;
7306;SDS011;3694;48.732;9.248;2022-09-09T17:13:44;1.13;;;0.70;;
7306;SDS011;3694;48.732;9.248;2022-09-09T17:16:11;0.80;;;0.40;;
7306;SDS011;3694;48.732;9.248;2022-09-09T17:18:37;0.53;;;0.40;;
7306;SDS011;3694;48.732;9.248;2022-09-09T17:21:04;0.30;;;0.30;;
7306;SDS011;3694;48.732;9.248;2022-09-09T17:23:32;2.70;;;0.70;;
7306;SDS011;3694;48.732;9.248;2022-09-09T17:25:58;1.63;;;0.97;;
7306;SDS011;3694;48.732;9.248;2022-09-09T17:28:25;2.80;;;0.83;;
7306;SDS011;3694;48.732;9.248;2022-09-09T17:30:56;1.10;;;0.60;;